This is the latest recevied weather packets stored in our database for station/object LRBV. If no packets are shown the sender has not sent any weather packets the latest 10 day(s).
| Time | Temp. | Humidity | Pressure | Rain* | Wind** | Luminosity | Snow |
|---|---|---|---|---|---|---|---|
| 1777585731 | 0° C | 93% | 1025 hPa | - | - | - | - |
| 1777584831 | 0° C | 93% | 1025 hPa | - | - | - | - |
| 1777583931 | 0° C | 93% | 1025 hPa | - | - | - | - |
| 1777583033 | 0° C | 93% | 1025 hPa | - | - | - | - |
| 1777582130 | 0° C | 93% | 1025 hPa | - | - | - | - |
| 1777581230 | 0° C | 93% | 1025 hPa | - | - | - | - |
| 1777580327 | 1.11° C | 87% | 1025 hPa | - | - | - | - |
| 1777579431 | 1.11° C | 87% | 1025 hPa | - | - | - | - |
| 1777578530 | 1.11° C | 93% | 1025 hPa | - | - | - | - |
| 1777577651 | 1.11° C | 93% | 1025 hPa | - | - | - | - |
| 1777576733 | 0° C | 93% | 1025 hPa | - | - | - | - |
| 1777575830 | 0° C | 93% | 1025 hPa | - | - | - | - |
| 1777574928 | 1.11° C | 87% | 1025 hPa | - | - | - | - |
| 1777574030 | 1.11° C | 87% | 1025 hPa | - | - | - | - |
| 1777573131 | 2.78° C | 75% | 1024 hPa | - | - | - | - |
| 1777572231 | 2.78° C | 75% | 1024 hPa | - | - | - | - |
| 1777571330 | 3.89° C | 70% | 1024 hPa | - | - | - | - |
| 1777570431 | 3.89° C | 70% | 1024 hPa | - | - | - | - |
| 1777569530 | 5° C | 70% | 1024 hPa | - | - | - | - |
| 1777568630 | 5° C | 70% | 1024 hPa | - | - | - | - |
| 1777567732 | 5° C | 70% | 1024 hPa | - | - | - | - |
| 1777566831 | 5° C | 70% | 1024 hPa | - | - | - | - |
| 1777565931 | 6.11° C | 57% | 1024 hPa | - | - | - | - |
| 1777565030 | 6.11° C | 57% | 1024 hPa | - | - | - | - |
| 1777564131 | 6.11° C | 61% | 1024 hPa | - | - | - | - |
* Rain since midnight (hover to see other rain measurements)
** Current wind speed in m/s (hover to see current wind gust speed)